Azalea Park, Florida
Current Conditions -  °F | °C
As of 9:53 AM on Thursday 23 Oct 2014 (Local Time) from KORL Reporting Station
Clear Clear  
Wind Chill: 73°   Ceiling: Unl
Heat Index: 73°   Visibility: 10mi
Dew Point: 59°   Wind: 7mph
Humidity: 61%   Direction: 50°NE
Pressure: 30.01"   Gusts: NA
Location:  28.5525°N, 81.3003°W
Report Text: KORL 231353Z 05006KT 10SM CLR 23/15 A3001 RMK AO2 SLP166 T02280150
Loading
Personal Weather Stations






























Interactive Weather Map New forecast layout! Learn more

10-Day Weather Forecast

Advertisements
Track Severe Weather on mobile